KLM740 HRYR-FOOL
Flight info
| Callsign | KLM740 |
|---|---|
| Flight time | N/A |
| Altitude | 3000 |
| Route | KAROS1D KAROS DCT BKV DCT ZIRUD DCT KIN DCT ILBOK DCT OTK DCT NAVTO DITKA1V |
| Aircraft | B772/H-SDE2E3FGHIJ5LORVWXY/LB1D1 |
Departure
| Time | 2026-04-15 17:54 |
|---|---|
| Airport | Kigali International Airport (HRYR) |
Arrival
| Time | N/A |
|---|---|
| Airport | Libreville Leon M'ba International Airport (FOOL) |
| Time | Latitude | Longitude | Altitude | Speed | Heading |
|---|---|---|---|---|---|
| 2026-04-15 17:49 | -1.96598 | 30.12418 | 4915 ft | 0 kts | 100° |
| 2026-04-15 17:53 | -1.96603 | 30.12482 | 4913 ft | 34 kts | 94° |
| 2026-04-15 17:53 | -1.96702 | 30.13006 | 4902 ft | 118 kts | 101° |
| 2026-04-15 17:53 | -1.96874 | 30.14057 | 4915 ft | 190 kts | 99° |
| 2026-04-15 17:53 | -1.97130 | 30.15556 | 5405 ft | 231 kts | 101° |
| 2026-04-15 17:54 | -1.97372 | 30.17181 | 6605 ft | 247 kts | 99° |
| 2026-04-15 17:54 | -1.97607 | 30.18979 | 7196 ft | 273 kts | 99° |
| 2026-04-15 17:54 | -1.97847 | 30.20850 | 7765 ft | 270 kts | 98° |
| 2026-04-15 17:54 | -1.98177 | 30.22717 | 8649 ft | 275 kts | 109° |
| 2026-04-15 17:55 | -1.99290 | 30.24260 | 9185 ft | 279 kts | 142° |
| 2026-04-15 17:55 | -2.01107 | 30.24940 | 9636 ft | 287 kts | 174° |
| 2026-04-15 17:55 | -2.03073 | 30.24526 | 9933 ft | 296 kts | 207° |
| 2026-04-15 17:55 | -2.04561 | 30.23076 | 10097 ft | 313 kts | 239° |
| 2026-04-15 17:56 | -2.05168 | 30.20919 | 10128 ft | 349 kts | 269° |
| 2026-04-15 17:56 | -2.04837 | 30.18364 | 10121 ft | 390 kts | 282° |
| 2026-04-15 17:56 | -2.04226 | 30.15649 | 10117 ft | 407 kts | 282° |
| 2026-04-15 17:56 | -2.03732 | 30.12855 | 10107 ft | 408 kts | 278° |
| 2026-04-15 17:57 | -2.03480 | 30.10028 | 10100 ft | 411 kts | 272° |
| 2026-04-15 17:57 | -2.03610 | 30.07170 | 10091 ft | 407 kts | 261° |
| 2026-04-15 17:57 | -2.04208 | 30.04386 | 10089 ft | 410 kts | 254° |
| 2026-04-15 17:57 | -2.04964 | 30.01644 | 10090 ft | 412 kts | 253° |
| 2026-04-15 17:58 | -2.05632 | 29.98879 | 10072 ft | 404 kts | 258° |
| 2026-04-15 17:58 | -2.06105 | 29.96070 | 10075 ft | 413 kts | 260° |
| 2026-04-15 17:58 | -2.06581 | 29.93276 | 10075 ft | 410 kts | 258° |
| 2026-04-15 17:58 | -2.07159 | 29.90514 | 10076 ft | 406 kts | 257° |
| 2026-04-15 17:59 | -2.07764 | 29.87716 | 10073 ft | 411 kts | 258° |
| 2026-04-15 17:59 | -2.08307 | 29.84919 | 10076 ft | 413 kts | 259° |
| 2026-04-15 17:59 | -2.08831 | 29.82113 | 10075 ft | 409 kts | 258° |
| 2026-04-15 17:59 | -2.09379 | 29.79333 | 10076 ft | 408 kts | 257° |
| 2026-04-15 18:00 | -2.09946 | 29.76558 | 10077 ft | 406 kts | 257° |
| 2026-04-15 18:00 | -2.10500 | 29.73785 | 10080 ft | 407 kts | 257° |
| 2026-04-15 18:00 | -2.11038 | 29.71018 | 10064 ft | 409 kts | 257° |
| 2026-04-15 18:00 | -2.11584 | 29.68226 | 10060 ft | 408 kts | 257° |
| 2026-04-15 18:01 | -2.12137 | 29.65450 | 10063 ft | 408 kts | 257° |
| 2026-04-15 18:01 | -2.12692 | 29.62662 | 10052 ft | 407 kts | 257° |
| 2026-04-15 18:01 | -2.13244 | 29.59865 | 10057 ft | 413 kts | 257° |
| 2026-04-15 18:01 | -2.13794 | 29.57076 | 10055 ft | 407 kts | 258° |
| 2026-04-15 18:02 | -2.14342 | 29.54292 | 10052 ft | 405 kts | 258° |
| 2026-04-15 18:02 | -2.14892 | 29.51505 | 10050 ft | 415 kts | 257° |
| 2026-04-15 18:02 | -2.15439 | 29.48740 | 10048 ft | 407 kts | 257° |
| 2026-04-15 18:02 | -2.15998 | 29.45930 | 10037 ft | 407 kts | 257° |
| 2026-04-15 18:03 | -2.16543 | 29.43156 | 10028 ft | 407 kts | 257° |
| 2026-04-15 18:03 | -2.17091 | 29.40370 | 10040 ft | 414 kts | 257° |
| 2026-04-15 18:03 | -2.17644 | 29.37570 | 10025 ft | 411 kts | 256° |
| 2026-04-15 18:03 | -2.18203 | 29.34759 | 9997 ft | 405 kts | 257° |
| 2026-04-15 18:04 | -2.18758 | 29.31951 | 10022 ft | 412 kts | 257° |
| 2026-04-15 18:04 | -2.19297 | 29.29204 | 10021 ft | 414 kts | 257° |
| 2026-04-15 18:04 | -2.19778 | 29.26382 | 10011 ft | 412 kts | 264° |
| 2026-04-15 18:04 | -2.19626 | 29.23510 | 9997 ft | 407 kts | 277° |
| 2026-04-15 18:05 | -2.19146 | 29.20721 | 9996 ft | 408 kts | 281° |
| 2026-04-15 18:05 | -2.18578 | 29.17952 | 10000 ft | 409 kts | 281° |
| 2026-04-15 18:05 | -2.18142 | 29.15149 | 9997 ft | 406 kts | 276° |
| 2026-04-15 18:05 | -2.17845 | 29.12338 | 9981 ft | 407 kts | 276° |
| 2026-04-15 18:06 | -2.17496 | 29.09525 | 9985 ft | 408 kts | 278° |
| 2026-04-15 18:06 | -2.17063 | 29.06730 | 9986 ft | 408 kts | 278° |
| 2026-04-15 18:06 | -2.16642 | 29.03923 | 9989 ft | 407 kts | 277° |
| 2026-04-15 18:06 | -2.16273 | 29.01111 | 9973 ft | 407 kts | 277° |
| 2026-04-15 18:07 | -2.15908 | 28.98338 | 9977 ft | 407 kts | 277° |
| 2026-04-15 18:07 | -2.15511 | 28.95529 | 9979 ft | 408 kts | 278° |
| 2026-04-15 18:07 | -2.15104 | 28.92678 | 9971 ft | 422 kts | 278° |
| 2026-04-15 18:07 | -2.14706 | 28.89819 | 9960 ft | 413 kts | 278° |
| 2026-04-15 18:08 | -2.14318 | 28.86966 | 9945 ft | 411 kts | 278° |
| 2026-04-15 18:08 | -2.13924 | 28.84108 | 9958 ft | 410 kts | 278° |
| 2026-04-15 18:08 | -2.13528 | 28.81292 | 9954 ft | 414 kts | 278° |
| 2026-04-15 18:08 | -2.13122 | 28.78413 | 9974 ft | 415 kts | 278° |
| 2026-04-15 18:09 | -2.12735 | 28.75571 | 9908 ft | 414 kts | 278° |
| 2026-04-15 18:09 | -2.12338 | 28.72716 | 9911 ft | 415 kts | 278° |
| 2026-04-15 18:09 | -2.11941 | 28.69873 | 9931 ft | 413 kts | 278° |
| 2026-04-15 18:09 | -2.11542 | 28.67015 | 9930 ft | 413 kts | 278° |
| 2026-04-15 18:10 | -2.11148 | 28.64171 | 9893 ft | 408 kts | 278° |
| 2026-04-15 18:10 | -2.10758 | 28.61355 | 9909 ft | 413 kts | 278° |
| 2026-04-15 18:10 | -2.10366 | 28.58533 | 9894 ft | 406 kts | 278° |
| 2026-04-15 18:10 | -2.09977 | 28.55751 | 9901 ft | 409 kts | 278° |
| 2026-04-15 18:11 | -2.09584 | 28.52927 | 9864 ft | 407 kts | 278° |
| 2026-04-15 18:11 | -2.09192 | 28.50108 | 9881 ft | 411 kts | 278° |
| 2026-04-15 18:11 | -2.08802 | 28.47293 | 9879 ft | 410 kts | 278° |
| 2026-04-15 18:11 | -2.08408 | 28.44468 | 9882 ft | 409 kts | 278° |
| 2026-04-15 18:12 | -2.08014 | 28.41643 | 9856 ft | 409 kts | 278° |
| 2026-04-15 18:12 | -2.07622 | 28.38820 | 9853 ft | 409 kts | 278° |
| 2026-04-15 18:12 | -2.07230 | 28.36001 | 9858 ft | 410 kts | 278° |
| 2026-04-15 18:12 | -2.06837 | 28.33167 | 9846 ft | 411 kts | 278° |
| 2026-04-15 18:13 | -2.06441 | 28.30342 | 9833 ft | 413 kts | 278° |
| 2026-04-15 18:13 | -2.06045 | 28.27500 | 9841 ft | 412 kts | 278° |
| 2026-04-15 18:13 | -2.05650 | 28.24664 | 9846 ft | 413 kts | 278° |
| 2026-04-15 18:14 | -2.04865 | 28.19021 | 9821 ft | 411 kts | 278° |
| 2026-04-15 18:14 | -2.04469 | 28.16182 | 9822 ft | 410 kts | 278° |
| 2026-04-15 18:14 | -2.04078 | 28.13372 | 9824 ft | 410 kts | 278° |
| 2026-04-15 18:14 | -2.03681 | 28.10531 | 9825 ft | 408 kts | 278° |
| 2026-04-15 18:15 | -2.03286 | 28.07694 | 9821 ft | 410 kts | 278° |
| 2026-04-15 18:15 | -2.02899 | 28.04915 | 9814 ft | 408 kts | 278° |
| 2026-04-15 18:15 | -2.02508 | 28.02110 | 9815 ft | 408 kts | 278° |
| 2026-04-15 18:15 | -2.02116 | 27.99301 | 9816 ft | 407 kts | 278° |
| 2026-04-15 18:16 | -2.01724 | 27.96483 | 9823 ft | 408 kts | 279° |
| 2026-04-15 18:16 | -2.01329 | 27.93670 | 9812 ft | 409 kts | 279° |
| 2026-04-15 18:16 | -2.00936 | 27.90849 | 9805 ft | 410 kts | 279° |
| 2026-04-15 18:16 | -2.00545 | 27.88037 | 9808 ft | 412 kts | 279° |
| 2026-04-15 18:17 | -2.00150 | 27.85206 | 9808 ft | 406 kts | 279° |
| 2026-04-15 18:17 | -1.99760 | 27.82418 | 9819 ft | 409 kts | 279° |
| 2026-04-15 18:17 | -1.99367 | 27.79602 | 9816 ft | 410 kts | 279° |
| 2026-04-15 18:17 | -1.98974 | 27.76788 | 9820 ft | 409 kts | 279° |
| 2026-04-15 18:18 | -1.98581 | 27.73971 | 9818 ft | 409 kts | 279° |
| 2026-04-15 18:18 | -1.98189 | 27.71151 | 9819 ft | 409 kts | 279° |
| 2026-04-15 18:18 | -1.97795 | 27.68340 | 9825 ft | 408 kts | 279° |
| 2026-04-15 18:18 | -1.97401 | 27.65528 | 9820 ft | 407 kts | 278° |
| 2026-04-15 18:19 | -1.97011 | 27.62723 | 9820 ft | 408 kts | 279° |
| 2026-04-15 18:19 | -1.96618 | 27.59906 | 9815 ft | 408 kts | 279° |
| 2026-04-15 18:19 | -1.96224 | 27.57095 | 9820 ft | 410 kts | 279° |
| 2026-04-15 18:19 | -1.95835 | 27.54310 | 9819 ft | 409 kts | 278° |
| 2026-04-15 18:20 | -1.95442 | 27.51492 | 9826 ft | 408 kts | 279° |
| 2026-04-15 18:20 | -1.95048 | 27.48678 | 9822 ft | 409 kts | 279° |
| 2026-04-15 18:20 | -1.94655 | 27.45865 | 9828 ft | 407 kts | 278° |
| 2026-04-15 18:20 | -1.94263 | 27.43062 | 9826 ft | 408 kts | 278° |
| 2026-04-15 18:21 | -1.93870 | 27.40245 | 9823 ft | 409 kts | 279° |
| 2026-04-15 18:21 | -1.93478 | 27.37445 | 9829 ft | 408 kts | 279° |
| 2026-04-15 18:21 | -1.93082 | 27.34618 | 9823 ft | 406 kts | 278° |
| 2026-04-15 18:21 | -1.92688 | 27.31799 | 9818 ft | 409 kts | 279° |
| 2026-04-15 18:22 | -1.92297 | 27.28999 | 9812 ft | 409 kts | 279° |
| 2026-04-15 18:22 | -1.91909 | 27.26233 | 9807 ft | 406 kts | 278° |
| 2026-04-15 18:22 | -1.91516 | 27.23422 | 9817 ft | 408 kts | 279° |
| 2026-04-15 18:22 | -1.91122 | 27.20599 | 9815 ft | 408 kts | 279° |
| 2026-04-15 18:23 | -1.90727 | 27.17785 | 9813 ft | 411 kts | 279° |
| 2026-04-15 18:23 | -1.90332 | 27.14969 | 9813 ft | 405 kts | 278° |
| 2026-04-15 18:23 | -1.89941 | 27.12173 | 9807 ft | 406 kts | 278° |
| 2026-04-15 18:23 | -1.89549 | 27.09361 | 9802 ft | 407 kts | 278° |
| 2026-04-15 18:24 | -1.89161 | 27.06595 | 9801 ft | 408 kts | 278° |
| 2026-04-15 18:24 | -1.88768 | 27.03788 | 9808 ft | 407 kts | 278° |
| 2026-04-15 18:24 | -1.88373 | 27.00977 | 9808 ft | 406 kts | 278° |
| 2026-04-15 18:24 | -1.87980 | 26.98167 | 9801 ft | 407 kts | 278° |
| 2026-04-15 18:25 | -1.87589 | 26.95371 | 9810 ft | 408 kts | 278° |
| 2026-04-15 18:25 | -1.87195 | 26.92560 | 9808 ft | 405 kts | 278° |
| 2026-04-15 18:25 | -1.86801 | 26.89753 | 9812 ft | 407 kts | 278° |
| 2026-04-15 18:25 | -1.86414 | 26.86985 | 9808 ft | 408 kts | 279° |
| 2026-04-15 18:26 | -1.86020 | 26.84172 | 9809 ft | 410 kts | 279° |
| 2026-04-15 18:26 | -1.85625 | 26.81354 | 9803 ft | 407 kts | 279° |
| 2026-04-15 18:26 | -1.85363 | 26.79493 | 9802 ft | 408 kts | 279° |
| 2026-04-15 18:26 | -1.84970 | 26.76689 | 9796 ft | 408 kts | 278° |
| 2026-04-15 18:27 | -1.84577 | 26.73881 | 9805 ft | 408 kts | 278° |
| 2026-04-15 18:27 | -1.84184 | 26.71076 | 9801 ft | 407 kts | 278° |
| 2026-04-15 18:27 | -1.83790 | 26.68270 | 9802 ft | 408 kts | 279° |
| 2026-04-15 18:27 | -1.83268 | 26.64552 | 9808 ft | 407 kts | 279° |
| 2026-04-15 18:28 | -1.83001 | 26.62652 | 9804 ft | 407 kts | 279° |
| 2026-04-15 18:28 | -1.82612 | 26.59877 | 9804 ft | 408 kts | 279° |
| 2026-04-15 18:28 | -1.82218 | 26.57067 | 9806 ft | 407 kts | 278° |
| 2026-04-15 18:28 | -1.81825 | 26.54260 | 9795 ft | 409 kts | 279° |
| 2026-04-15 18:29 | -1.81430 | 26.51450 | 9798 ft | 408 kts | 279° |
| 2026-04-15 18:29 | -1.81035 | 26.48638 | 9803 ft | 408 kts | 279° |
| 2026-04-15 18:29 | -1.80640 | 26.45823 | 9817 ft | 408 kts | 279° |
| 2026-04-15 18:29 | -1.80252 | 26.43052 | 9807 ft | 408 kts | 279° |
| 2026-04-15 18:30 | -1.79857 | 26.40240 | 9797 ft | 408 kts | 279° |
| 2026-04-15 18:30 | -1.79460 | 26.37426 | 9799 ft | 407 kts | 279° |
| 2026-04-15 18:30 | -1.79066 | 26.34619 | 9802 ft | 409 kts | 279° |
| 2026-04-15 18:30 | -1.78672 | 26.31805 | 9800 ft | 407 kts | 279° |
| 2026-04-15 18:31 | -1.78277 | 26.28995 | 9793 ft | 409 kts | 279° |
| 2026-04-15 18:31 | -1.77887 | 26.26224 | 9799 ft | 408 kts | 279° |
| 2026-04-15 18:31 | -1.77493 | 26.23419 | 9797 ft | 406 kts | 279° |
| 2026-04-15 18:31 | -1.77099 | 26.20617 | 9798 ft | 406 kts | 279° |
| 2026-04-15 18:32 | -1.76706 | 26.17815 | 9792 ft | 408 kts | 279° |
| 2026-04-15 18:32 | -1.76312 | 26.15011 | 9796 ft | 407 kts | 279° |
| 2026-04-15 18:32 | -1.75918 | 26.12209 | 9792 ft | 408 kts | 279° |
| 2026-04-15 18:32 | -1.75523 | 26.09402 | 9793 ft | 407 kts | 279° |
| 2026-04-15 18:33 | -1.75128 | 26.06591 | 9793 ft | 407 kts | 279° |
| 2026-04-15 18:33 | -1.74735 | 26.03791 | 9790 ft | 408 kts | 279° |
| 2026-04-15 18:33 | -1.74340 | 26.00989 | 9791 ft | 407 kts | 279° |
| 2026-04-15 18:33 | -1.73946 | 25.98182 | 9788 ft | 407 kts | 279° |
| 2026-04-15 18:34 | -1.73555 | 25.95402 | 9794 ft | 407 kts | 279° |
| 2026-04-15 18:34 | -1.73160 | 25.92599 | 9793 ft | 408 kts | 279° |
| 2026-04-15 18:34 | -1.72765 | 25.89789 | 9794 ft | 407 kts | 279° |
| 2026-04-15 18:34 | -1.72370 | 25.86983 | 9790 ft | 407 kts | 279° |
| 2026-04-15 18:35 | -1.71976 | 25.84182 | 9794 ft | 407 kts | 279° |
| 2026-04-15 18:35 | -1.71586 | 25.81408 | 9805 ft | 408 kts | 279° |
| 2026-04-15 18:35 | -1.71190 | 25.78597 | 9787 ft | 407 kts | 279° |
| 2026-04-15 18:35 | -1.70795 | 25.75790 | 9785 ft | 408 kts | 279° |
| 2026-04-15 18:36 | -1.70400 | 25.72987 | 9781 ft | 407 kts | 279° |
| 2026-04-15 18:36 | -1.70004 | 25.70174 | 9788 ft | 408 kts | 279° |
| 2026-04-15 18:36 | -1.69610 | 25.67371 | 9784 ft | 407 kts | 279° |
| 2026-04-15 18:36 | -1.69213 | 25.64552 | 9784 ft | 408 kts | 279° |
| 2026-04-15 18:37 | -1.68816 | 25.61742 | 9795 ft | 408 kts | 279° |
| 2026-04-15 18:37 | -1.68421 | 25.58932 | 9794 ft | 408 kts | 279° |
| 2026-04-15 18:37 | -1.68030 | 25.56158 | 9790 ft | 408 kts | 279° |
| 2026-04-15 18:37 | -1.67634 | 25.53347 | 9795 ft | 408 kts | 279° |
| 2026-04-15 18:38 | -1.67238 | 25.50535 | 9793 ft | 408 kts | 279° |
| 2026-04-15 18:38 | -1.66841 | 25.47721 | 9793 ft | 408 kts | 279° |
| 2026-04-15 18:38 | -1.66446 | 25.44916 | 9793 ft | 408 kts | 279° |
| 2026-04-15 18:38 | -1.66050 | 25.42109 | 9795 ft | 408 kts | 279° |
| 2026-04-15 18:39 | -1.65654 | 25.39295 | 9791 ft | 408 kts | 279° |
| 2026-04-15 18:39 | -1.65259 | 25.36495 | 9793 ft | 407 kts | 279° |
| 2026-04-15 18:39 | -1.64864 | 25.33694 | 9795 ft | 407 kts | 279° |
| 2026-04-15 18:39 | -1.64468 | 25.30888 | 9798 ft | 407 kts | 278° |
| 2026-04-15 18:40 | -1.64073 | 25.28088 | 9794 ft | 407 kts | 278° |
| 2026-04-15 18:40 | -1.63679 | 25.25290 | 9800 ft | 407 kts | 278° |
| 2026-04-15 18:40 | -1.63289 | 25.22528 | 9795 ft | 406 kts | 278° |
| 2026-04-15 18:40 | -1.62894 | 25.19730 | 9792 ft | 407 kts | 278° |
| 2026-04-15 18:41 | -1.62499 | 25.16925 | 9796 ft | 407 kts | 278° |
| 2026-04-15 18:41 | -1.62104 | 25.14123 | 9797 ft | 406 kts | 278° |
| 2026-04-15 18:41 | -1.61708 | 25.11319 | 9796 ft | 407 kts | 278° |
| 2026-04-15 18:41 | -1.61313 | 25.08517 | 9797 ft | 406 kts | 278° |
| 2026-04-15 18:42 | -1.60917 | 25.05717 | 9797 ft | 407 kts | 278° |
| 2026-04-15 18:42 | -1.60522 | 25.02916 | 9797 ft | 407 kts | 278° |
| 2026-04-15 18:42 | -1.60126 | 25.00116 | 9797 ft | 406 kts | 278° |
| 2026-04-15 18:42 | -1.59736 | 24.97354 | 9795 ft | 407 kts | 278° |
| 2026-04-15 18:43 | -1.59342 | 24.94558 | 9797 ft | 406 kts | 278° |
| 2026-04-15 18:43 | -1.58948 | 24.91763 | 9793 ft | 406 kts | 278° |
| 2026-04-15 18:43 | -1.58552 | 24.88966 | 9797 ft | 406 kts | 278° |
| 2026-04-15 18:43 | -1.58157 | 24.86169 | 9797 ft | 406 kts | 278° |
| 2026-04-15 18:44 | -1.57760 | 24.83358 | 9799 ft | 406 kts | 278° |
| 2026-04-15 18:44 | -1.57370 | 24.80590 | 9801 ft | 406 kts | 278° |
| 2026-04-15 18:44 | -1.56975 | 24.77797 | 9796 ft | 406 kts | 278° |
| 2026-04-15 18:44 | -1.56579 | 24.74996 | 9797 ft | 406 kts | 278° |
| 2026-04-15 18:45 | -1.56183 | 24.72197 | 9797 ft | 406 kts | 278° |
| 2026-04-15 18:45 | -1.55788 | 24.69397 | 9799 ft | 407 kts | 278° |
| 2026-04-15 18:45 | -1.55393 | 24.66603 | 9798 ft | 406 kts | 278° |
| 2026-04-15 18:45 | -1.54997 | 24.63801 | 9802 ft | 406 kts | 278° |
| 2026-04-15 18:46 | -1.54607 | 24.61038 | 9806 ft | 406 kts | 278° |
| 2026-04-15 18:46 | -1.54210 | 24.58234 | 9802 ft | 407 kts | 278° |
| 2026-04-15 18:46 | -1.53815 | 24.55442 | 9804 ft | 406 kts | 278° |
| 2026-04-15 18:46 | -1.53419 | 24.52643 | 9799 ft | 406 kts | 278° |
| 2026-04-15 18:47 | -1.53025 | 24.49847 | 9803 ft | 406 kts | 278° |
| 2026-04-15 18:47 | -1.52628 | 24.47051 | 9802 ft | 406 kts | 278° |
| 2026-04-15 18:47 | -1.52231 | 24.44242 | 9809 ft | 406 kts | 278° |
| 2026-04-15 18:47 | -1.51841 | 24.41486 | 9809 ft | 406 kts | 278° |
| 2026-04-15 18:48 | -1.51446 | 24.38691 | 9804 ft | 406 kts | 278° |
| 2026-04-15 18:48 | -1.51050 | 24.35897 | 9808 ft | 406 kts | 278° |
| 2026-04-15 18:48 | -1.50655 | 24.33100 | 9803 ft | 406 kts | 278° |
| 2026-04-15 18:48 | -1.50259 | 24.30299 | 9809 ft | 406 kts | 278° |
| 2026-04-15 18:49 | -1.49862 | 24.27494 | 9804 ft | 406 kts | 278° |
| 2026-04-15 18:49 | -1.49467 | 24.24699 | 9811 ft | 405 kts | 278° |
| 2026-04-15 18:49 | -1.49076 | 24.21942 | 9800 ft | 406 kts | 278° |
| 2026-04-15 18:49 | -1.48679 | 24.19138 | 9798 ft | 406 kts | 278° |
| 2026-04-15 18:50 | -1.48283 | 24.16342 | 9797 ft | 406 kts | 278° |
| 2026-04-15 18:50 | -1.47887 | 24.13546 | 9800 ft | 406 kts | 278° |
| 2026-04-15 18:50 | -1.47492 | 24.10753 | 9789 ft | 406 kts | 278° |
| 2026-04-15 18:50 | -1.47096 | 24.07959 | 9792 ft | 405 kts | 278° |
| 2026-04-15 18:51 | -1.46705 | 24.05203 | 9796 ft | 406 kts | 278° |
| 2026-04-15 18:51 | -1.46310 | 24.02414 | 9794 ft | 406 kts | 278° |
| 2026-04-15 18:51 | -1.45915 | 23.99620 | 9796 ft | 405 kts | 278° |
| 2026-04-15 18:51 | -1.45520 | 23.96828 | 9799 ft | 406 kts | 278° |
| 2026-04-15 18:52 | -1.45123 | 23.94033 | 9791 ft | 406 kts | 278° |
| 2026-04-15 18:52 | -1.44726 | 23.91229 | 9799 ft | 406 kts | 278° |
| 2026-04-15 18:52 | -1.44331 | 23.88436 | 9796 ft | 406 kts | 278° |
| 2026-04-15 18:52 | -1.43934 | 23.85641 | 9802 ft | 405 kts | 278° |
| 2026-04-15 18:53 | -1.43539 | 23.82849 | 9798 ft | 406 kts | 278° |
| 2026-04-15 18:53 | -1.43143 | 23.80057 | 9800 ft | 406 kts | 278° |
| 2026-04-15 18:53 | -1.42747 | 23.77261 | 9799 ft | 406 kts | 278° |
| 2026-04-15 18:53 | -1.42351 | 23.74469 | 9803 ft | 405 kts | 278° |
| 2026-04-15 18:54 | -1.41960 | 23.71719 | 9798 ft | 405 kts | 278° |
| 2026-04-15 18:54 | -1.41565 | 23.68927 | 9803 ft | 405 kts | 278° |
| 2026-04-15 18:54 | -1.41171 | 23.66141 | 9798 ft | 405 kts | 278° |
| 2026-04-15 18:54 | -1.40775 | 23.63354 | 9795 ft | 405 kts | 278° |
| 2026-04-15 18:55 | -1.40378 | 23.60559 | 9797 ft | 405 kts | 278° |
| 2026-04-15 18:55 | -1.39982 | 23.57767 | 9804 ft | 406 kts | 278° |
| 2026-04-15 18:55 | -1.39586 | 23.54960 | 9803 ft | 409 kts | 278° |
| 2026-04-15 18:55 | -1.39186 | 23.52149 | 9806 ft | 408 kts | 278° |
| 2026-04-15 18:56 | -1.38785 | 23.49337 | 9804 ft | 408 kts | 278° |
| 2026-04-15 18:56 | -1.38392 | 23.46563 | 9803 ft | 408 kts | 278° |
| 2026-04-15 18:56 | -1.37995 | 23.43756 | 9802 ft | 408 kts | 278° |
| 2026-04-15 18:56 | -1.37597 | 23.40957 | 9799 ft | 406 kts | 278° |
| 2026-04-15 18:57 | -1.37200 | 23.38157 | 9805 ft | 407 kts | 278° |
| 2026-04-15 18:57 | -1.36804 | 23.35368 | 9799 ft | 406 kts | 278° |
| 2026-04-15 18:57 | -1.36407 | 23.32571 | 9788 ft | 405 kts | 278° |
| 2026-04-15 18:57 | -1.36010 | 23.29774 | 9791 ft | 406 kts | 278° |
| 2026-04-15 18:58 | -1.35614 | 23.26983 | 9792 ft | 406 kts | 278° |
| 2026-04-15 18:58 | -1.35216 | 23.24183 | 9784 ft | 406 kts | 278° |
| 2026-04-15 18:58 | -1.34825 | 23.21426 | 9787 ft | 406 kts | 278° |
| 2026-04-15 18:58 | -1.34423 | 23.18599 | 9784 ft | 406 kts | 278° |
| 2026-04-15 18:59 | -1.34031 | 23.15836 | 9798 ft | 406 kts | 278° |
| 2026-04-15 18:59 | -1.33633 | 23.13037 | 9799 ft | 406 kts | 278° |
| 2026-04-15 18:59 | -1.33236 | 23.10239 | 9797 ft | 406 kts | 278° |
| 2026-04-15 18:59 | -1.32841 | 23.07454 | 9785 ft | 403 kts | 278° |
| 2026-04-15 19:00 | -1.32446 | 23.04676 | 9788 ft | 403 kts | 278° |
| 2026-04-15 19:00 | -1.32049 | 23.01891 | 9786 ft | 404 kts | 278° |
| 2026-04-15 19:00 | -1.31654 | 22.99108 | 9786 ft | 405 kts | 278° |
| 2026-04-15 19:00 | -1.31260 | 22.96327 | 9786 ft | 404 kts | 278° |
| 2026-04-15 19:01 | -1.30864 | 22.93546 | 9781 ft | 404 kts | 278° |
| 2026-04-15 19:01 | -1.30473 | 22.90796 | 9790 ft | 405 kts | 278° |
| 2026-04-15 19:01 | -1.30077 | 22.88014 | 9789 ft | 403 kts | 278° |
| 2026-04-15 19:01 | -1.29682 | 22.85231 | 9786 ft | 405 kts | 278° |
| 2026-04-15 19:02 | -1.29286 | 22.82448 | 9786 ft | 403 kts | 278° |
| 2026-04-15 19:02 | -1.28890 | 22.79659 | 9782 ft | 405 kts | 278° |
| 2026-04-15 19:02 | -1.28495 | 22.76878 | 9783 ft | 403 kts | 279° |
| 2026-04-15 19:02 | -1.28100 | 22.74098 | 9791 ft | 404 kts | 279° |
| 2026-04-15 19:03 | -1.27708 | 22.71350 | 9782 ft | 403 kts | 279° |
| 2026-04-15 19:03 | -1.27312 | 22.68571 | 9780 ft | 402 kts | 279° |
| 2026-04-15 19:03 | -1.26918 | 22.65798 | 9775 ft | 403 kts | 279° |
| 2026-04-15 19:03 | -1.26525 | 22.63025 | 9778 ft | 403 kts | 279° |
| 2026-04-15 19:04 | -1.26129 | 22.60241 | 9790 ft | 404 kts | 279° |
| 2026-04-15 19:04 | -1.25733 | 22.57466 | 9785 ft | 403 kts | 279° |
| 2026-04-15 19:04 | -1.25338 | 22.54685 | 9774 ft | 403 kts | 279° |
| 2026-04-15 19:04 | -1.24943 | 22.51913 | 9776 ft | 404 kts | 279° |
| 2026-04-15 19:05 | -1.24549 | 22.49135 | 9775 ft | 405 kts | 279° |
| 2026-04-15 19:05 | -1.24158 | 22.46393 | 9772 ft | 404 kts | 279° |
| 2026-04-15 19:05 | -1.23762 | 22.43610 | 9778 ft | 402 kts | 279° |
| 2026-04-15 19:05 | -1.23366 | 22.40826 | 9774 ft | 403 kts | 279° |
| 2026-04-15 19:06 | -1.22971 | 22.38052 | 9773 ft | 404 kts | 279° |
| 2026-04-15 19:06 | -1.22575 | 22.35277 | 9775 ft | 403 kts | 279° |
| 2026-04-15 19:06 | -1.22180 | 22.32500 | 9788 ft | 404 kts | 279° |
| 2026-04-15 19:06 | -1.21784 | 22.29720 | 9772 ft | 404 kts | 279° |
| 2026-04-15 19:07 | -1.21389 | 22.26940 | 9775 ft | 404 kts | 279° |
| 2026-04-15 19:07 | -1.20997 | 22.24189 | 9773 ft | 403 kts | 279° |
| 2026-04-15 19:07 | -1.20602 | 22.21415 | 9770 ft | 403 kts | 279° |
| 2026-04-15 19:07 | -1.20207 | 22.18640 | 9773 ft | 403 kts | 279° |
| 2026-04-15 19:08 | -1.19811 | 22.15863 | 9771 ft | 403 kts | 279° |
| 2026-04-15 19:08 | -1.19416 | 22.13086 | 9768 ft | 404 kts | 279° |
| 2026-04-15 19:08 | -1.19019 | 22.10300 | 9765 ft | 405 kts | 279° |
| 2026-04-15 19:08 | -1.18622 | 22.07518 | 9764 ft | 405 kts | 279° |
| 2026-04-15 19:09 | -1.18225 | 22.04732 | 9772 ft | 404 kts | 279° |
| 2026-04-15 19:09 | -1.17829 | 22.01944 | 9769 ft | 405 kts | 279° |
| 2026-04-15 19:09 | -1.17431 | 21.99158 | 9772 ft | 405 kts | 279° |
| 2026-04-15 19:09 | -1.17034 | 21.96372 | 9768 ft | 405 kts | 279° |
| 2026-04-15 19:10 | -1.16638 | 21.93589 | 9772 ft | 404 kts | 279° |
| 2026-04-15 19:10 | -1.16247 | 21.90842 | 9761 ft | 404 kts | 279° |
| 2026-04-15 19:10 | -1.15850 | 21.88061 | 9773 ft | 405 kts | 279° |
| 2026-04-15 19:10 | -1.15452 | 21.85274 | 9769 ft | 404 kts | 279° |
| 2026-04-15 19:11 | -1.15056 | 21.82491 | 9774 ft | 405 kts | 279° |
| 2026-04-15 19:11 | -1.14659 | 21.79703 | 9771 ft | 405 kts | 279° |
| 2026-04-15 19:11 | -1.14261 | 21.76917 | 9764 ft | 405 kts | 279° |
| 2026-04-15 19:11 | -1.13863 | 21.74124 | 9767 ft | 405 kts | 279° |
| 2026-04-15 19:12 | -1.13466 | 21.71338 | 9763 ft | 405 kts | 279° |
| 2026-04-15 19:12 | -1.13074 | 21.68589 | 9764 ft | 405 kts | 279° |
| 2026-04-15 19:12 | -1.12677 | 21.65803 | 9766 ft | 405 kts | 279° |
| 2026-04-15 19:12 | -1.12278 | 21.63011 | 9768 ft | 405 kts | 279° |
| 2026-04-15 19:13 | -1.11880 | 21.60222 | 9765 ft | 405 kts | 279° |
| 2026-04-15 19:13 | -1.11481 | 21.57421 | 9765 ft | 405 kts | 279° |
| 2026-04-15 19:13 | -1.11083 | 21.54632 | 9764 ft | 405 kts | 279° |
| 2026-04-15 19:13 | -1.10691 | 21.51879 | 9766 ft | 405 kts | 279° |
| 2026-04-15 19:14 | -1.10292 | 21.49083 | 9769 ft | 404 kts | 279° |
| 2026-04-15 19:14 | -1.09894 | 21.46297 | 9765 ft | 406 kts | 279° |
| 2026-04-15 19:14 | -1.09497 | 21.43512 | 9766 ft | 405 kts | 279° |
| 2026-04-15 19:14 | -1.09099 | 21.40722 | 9765 ft | 405 kts | 279° |
| 2026-04-15 19:15 | -1.08700 | 21.37931 | 9761 ft | 405 kts | 279° |
| 2026-04-15 19:15 | -1.08302 | 21.35140 | 9766 ft | 405 kts | 279° |
| 2026-04-15 19:15 | -1.07905 | 21.32356 | 9762 ft | 405 kts | 279° |
| 2026-04-15 19:15 | -1.07507 | 21.29569 | 9762 ft | 405 kts | 279° |
| 2026-04-15 19:16 | -1.07243 | 21.27725 | 9766 ft | 405 kts | 279° |
| 2026-04-15 19:16 | -1.06714 | 21.24019 | 9765 ft | 405 kts | 279° |
| 2026-04-15 19:16 | -1.06452 | 21.22172 | 9754 ft | 404 kts | 279° |
| 2026-04-15 19:16 | -1.06053 | 21.19381 | 9763 ft | 405 kts | 279° |
| 2026-04-15 19:17 | -1.05654 | 21.16596 | 9749 ft | 404 kts | 279° |
| 2026-04-15 19:17 | -1.05128 | 21.12905 | 9758 ft | 405 kts | 279° |
| 2026-04-15 19:17 | -1.04859 | 21.11019 | 9758 ft | 407 kts | 279° |
| 2026-04-15 19:17 | -1.04461 | 21.08233 | 9745 ft | 405 kts | 279° |
| 2026-04-15 19:18 | -1.04062 | 21.05440 | 9752 ft | 404 kts | 279° |
| 2026-04-15 19:18 | -1.03667 | 21.02681 | 9746 ft | 406 kts | 279° |
| 2026-04-15 19:18 | -1.02872 | 20.97105 | 9756 ft | 404 kts | 279° |
| 2026-04-15 19:19 | -1.02472 | 20.94311 | 9757 ft | 405 kts | 279° |
| 2026-04-15 19:19 | -1.02079 | 20.91560 | 9755 ft | 405 kts | 279° |
| 2026-04-15 19:19 | -1.01681 | 20.88777 | 9748 ft | 405 kts | 279° |
| 2026-04-15 19:19 | -1.01279 | 20.85956 | 9743 ft | 405 kts | 279° |
| 2026-04-15 19:20 | -1.00886 | 20.83207 | 9751 ft | 404 kts | 279° |
| 2026-04-15 19:20 | -1.00487 | 20.80413 | 9745 ft | 405 kts | 279° |
| 2026-04-15 19:20 | -1.00085 | 20.77611 | 9742 ft | 406 kts | 279° |
| 2026-04-15 19:20 | -0.99686 | 20.74814 | 9745 ft | 407 kts | 279° |
| 2026-04-15 19:21 | -0.99286 | 20.72015 | 9747 ft | 406 kts | 279° |
| 2026-04-15 19:21 | -0.98886 | 20.69214 | 9754 ft | 407 kts | 279° |
| 2026-04-15 19:21 | -0.98490 | 20.66448 | 9745 ft | 407 kts | 279° |
| 2026-04-15 19:21 | -0.98090 | 20.63652 | 9750 ft | 406 kts | 279° |
| 2026-04-15 19:22 | -0.97691 | 20.60856 | 9749 ft | 407 kts | 279° |
| 2026-04-15 19:22 | -0.97291 | 20.58056 | 9740 ft | 407 kts | 279° |
| 2026-04-15 19:22 | -0.96890 | 20.55253 | 9743 ft | 406 kts | 279° |
| 2026-04-15 19:22 | -0.96490 | 20.52460 | 9740 ft | 406 kts | 279° |
| 2026-04-15 19:23 | -0.96091 | 20.49663 | 9742 ft | 406 kts | 279° |
| 2026-04-15 19:23 | -0.95691 | 20.46868 | 9739 ft | 407 kts | 279° |
| 2026-04-15 19:23 | -0.95289 | 20.44057 | 9738 ft | 407 kts | 279° |
| 2026-04-15 19:23 | -0.94893 | 20.41292 | 9744 ft | 407 kts | 279° |
| 2026-04-15 19:24 | -0.94491 | 20.38479 | 9741 ft | 408 kts | 279° |
| 2026-04-15 19:24 | -0.94089 | 20.35666 | 9749 ft | 408 kts | 279° |
| 2026-04-15 19:24 | -0.93686 | 20.32854 | 9742 ft | 409 kts | 279° |
| 2026-04-15 19:24 | -0.93286 | 20.30050 | 9739 ft | 408 kts | 279° |
| 2026-04-15 19:25 | -0.92884 | 20.27243 | 9735 ft | 407 kts | 279° |
| 2026-04-15 19:25 | -0.92483 | 20.24440 | 9736 ft | 407 kts | 279° |
| 2026-04-15 19:25 | -0.92082 | 20.21643 | 9738 ft | 407 kts | 279° |
| 2026-04-15 19:25 | -0.91682 | 20.18838 | 9736 ft | 407 kts | 279° |
| 2026-04-15 19:26 | -0.91285 | 20.16069 | 9740 ft | 407 kts | 279° |
| 2026-04-15 19:26 | -0.90885 | 20.13273 | 9738 ft | 407 kts | 280° |
| 2026-04-15 19:26 | -0.90482 | 20.10466 | 9738 ft | 408 kts | 280° |
| 2026-04-15 19:26 | -0.90080 | 20.07651 | 9732 ft | 408 kts | 280° |
| 2026-04-15 19:27 | -0.89680 | 20.04848 | 9737 ft | 407 kts | 280° |
| 2026-04-15 19:27 | -0.89277 | 20.02035 | 9738 ft | 408 kts | 280° |
| 2026-04-15 19:27 | -0.88879 | 19.99265 | 9737 ft | 407 kts | 279° |
| 2026-04-15 19:27 | -0.88478 | 19.96459 | 9735 ft | 408 kts | 279° |
| 2026-04-15 19:28 | -0.88078 | 19.93658 | 9736 ft | 407 kts | 279° |
| 2026-04-15 19:28 | -0.87675 | 19.90844 | 9739 ft | 408 kts | 280° |
| 2026-04-15 19:28 | -0.87271 | 19.88035 | 9736 ft | 408 kts | 280° |
| 2026-04-15 19:28 | -0.86869 | 19.85223 | 9736 ft | 408 kts | 280° |
| 2026-04-15 19:29 | -0.86467 | 19.82413 | 9742 ft | 408 kts | 280° |
| 2026-04-15 19:29 | -0.86065 | 19.79604 | 9740 ft | 408 kts | 279° |
| 2026-04-15 19:29 | -0.85663 | 19.76797 | 9742 ft | 408 kts | 279° |
| 2026-04-15 19:29 | -0.85260 | 19.73985 | 9737 ft | 408 kts | 279° |
| 2026-04-15 19:30 | -0.84859 | 19.71180 | 9741 ft | 409 kts | 279° |
| 2026-04-15 19:30 | -0.84460 | 19.68403 | 9738 ft | 409 kts | 279° |
| 2026-04-15 19:30 | -0.84058 | 19.65589 | 9735 ft | 409 kts | 280° |
| 2026-04-15 19:30 | -0.83654 | 19.62772 | 9740 ft | 409 kts | 279° |
| 2026-04-15 19:31 | -0.83250 | 19.59949 | 9738 ft | 408 kts | 280° |
| 2026-04-15 19:31 | -0.82847 | 19.57142 | 9740 ft | 408 kts | 279° |
| 2026-04-15 19:31 | -0.82445 | 19.54332 | 9742 ft | 408 kts | 280° |
| 2026-04-15 19:31 | -0.82042 | 19.51523 | 9739 ft | 408 kts | 279° |
| 2026-04-15 19:32 | -0.81646 | 19.48754 | 9745 ft | 408 kts | 279° |
| 2026-04-15 19:32 | -0.81244 | 19.45949 | 9744 ft | 408 kts | 280° |
| 2026-04-15 19:32 | -0.80841 | 19.43135 | 9745 ft | 409 kts | 280° |
| 2026-04-15 19:32 | -0.80436 | 19.40316 | 9742 ft | 410 kts | 280° |
| 2026-04-15 19:33 | -0.80033 | 19.37500 | 9743 ft | 409 kts | 280° |
| 2026-04-15 19:33 | -0.79630 | 19.34686 | 9748 ft | 408 kts | 280° |
| 2026-04-15 19:33 | -0.79228 | 19.31874 | 9744 ft | 409 kts | 280° |
| 2026-04-15 19:33 | -0.78823 | 19.29062 | 9748 ft | 409 kts | 280° |
| 2026-04-15 19:34 | -0.78419 | 19.26240 | 9742 ft | 409 kts | 280° |
| 2026-04-15 19:34 | -0.78016 | 19.23429 | 9742 ft | 409 kts | 280° |
| 2026-04-15 19:34 | -0.77618 | 19.20648 | 9746 ft | 409 kts | 280° |
| 2026-04-15 19:34 | -0.77213 | 19.17826 | 9742 ft | 410 kts | 280° |
| 2026-04-15 19:35 | -0.76809 | 19.15011 | 9746 ft | 409 kts | 280° |
| 2026-04-15 19:35 | -0.76405 | 19.12191 | 9740 ft | 409 kts | 279° |
| 2026-04-15 19:35 | -0.76001 | 19.09363 | 9741 ft | 413 kts | 280° |
| 2026-04-15 19:35 | -0.75596 | 19.06542 | 9745 ft | 411 kts | 280° |
| 2026-04-15 19:36 | -0.75190 | 19.03714 | 9739 ft | 410 kts | 280° |
| 2026-04-15 19:36 | -0.74784 | 19.00885 | 9744 ft | 411 kts | 280° |
| 2026-04-15 19:36 | -0.74379 | 18.98061 | 9747 ft | 411 kts | 280° |
| 2026-04-15 19:36 | -0.73979 | 18.95270 | 9741 ft | 411 kts | 280° |
| 2026-04-15 19:37 | -0.73573 | 18.92442 | 9749 ft | 411 kts | 280° |
| 2026-04-15 19:37 | -0.73167 | 18.89607 | 9746 ft | 411 kts | 280° |
| 2026-04-15 19:37 | -0.72761 | 18.86777 | 9743 ft | 411 kts | 280° |
| 2026-04-15 19:37 | -0.72355 | 18.83947 | 9742 ft | 411 kts | 280° |
| 2026-04-15 19:38 | -0.71948 | 18.81107 | 9744 ft | 415 kts | 280° |
| 2026-04-15 19:38 | -0.71544 | 18.78288 | 9756 ft | 413 kts | 280° |
| 2026-04-15 19:38 | -0.71135 | 18.75441 | 9745 ft | 415 kts | 281° |
| 2026-04-15 19:38 | -0.70725 | 18.72589 | 9742 ft | 416 kts | 281° |
| 2026-04-15 19:39 | -0.70314 | 18.69722 | 9748 ft | 415 kts | 281° |
| 2026-04-15 19:39 | -0.69904 | 18.66861 | 9749 ft | 416 kts | 281° |
| 2026-04-15 19:39 | -0.69493 | 18.63996 | 9743 ft | 415 kts | 281° |
| 2026-04-15 19:39 | -0.69083 | 18.61145 | 9741 ft | 415 kts | 281° |
| 2026-04-15 19:40 | -0.68674 | 18.58291 | 9748 ft | 415 kts | 281° |
| 2026-04-15 19:40 | -0.68263 | 18.55427 | 9741 ft | 415 kts | 281° |
| 2026-04-15 19:40 | -0.67859 | 18.52613 | 9744 ft | 415 kts | 281° |
| 2026-04-15 19:40 | -0.67451 | 18.49764 | 9748 ft | 414 kts | 281° |
| 2026-04-15 19:41 | -0.67040 | 18.46905 | 9744 ft | 414 kts | 281° |
| 2026-04-15 19:41 | -0.66630 | 18.44054 | 9747 ft | 414 kts | 281° |
| 2026-04-15 19:41 | -0.66222 | 18.41202 | 9742 ft | 414 kts | 281° |
| 2026-04-15 19:41 | -0.65812 | 18.38347 | 9747 ft | 415 kts | 281° |
| 2026-04-15 19:42 | -0.65402 | 18.35491 | 9748 ft | 414 kts | 281° |
| 2026-04-15 19:42 | -0.64999 | 18.32676 | 9749 ft | 414 kts | 281° |
| 2026-04-15 19:42 | -0.64589 | 18.29829 | 9744 ft | 414 kts | 281° |
| 2026-04-15 19:42 | -0.64178 | 18.26972 | 9743 ft | 414 kts | 281° |
| 2026-04-15 19:43 | -0.63768 | 18.24118 | 9744 ft | 414 kts | 281° |
| 2026-04-15 19:43 | -0.63359 | 18.21268 | 9743 ft | 414 kts | 281° |
| 2026-04-15 19:43 | -0.62951 | 18.18420 | 9744 ft | 415 kts | 281° |
| 2026-04-15 19:43 | -0.62542 | 18.15569 | 9745 ft | 414 kts | 281° |
| 2026-04-15 19:44 | -0.62131 | 18.12712 | 9742 ft | 414 kts | 281° |
| 2026-04-15 19:44 | -0.61721 | 18.09856 | 9747 ft | 414 kts | 281° |
| 2026-04-15 19:44 | -0.61317 | 18.07047 | 9746 ft | 414 kts | 281° |
| 2026-04-15 19:44 | -0.60908 | 18.04191 | 9743 ft | 414 kts | 281° |
| 2026-04-15 19:45 | -0.60499 | 18.01339 | 9753 ft | 414 kts | 281° |
| 2026-04-15 19:45 | -0.60088 | 17.98484 | 9747 ft | 415 kts | 281° |
| 2026-04-15 19:45 | -0.59678 | 17.95627 | 9757 ft | 414 kts | 281° |
| 2026-04-15 19:45 | -0.59268 | 17.92780 | 9751 ft | 415 kts | 281° |
| 2026-04-15 19:46 | -0.58859 | 17.89919 | 9753 ft | 415 kts | 281° |
| 2026-04-15 19:46 | -0.58454 | 17.87104 | 9760 ft | 414 kts | 281° |
| 2026-04-15 19:46 | -0.58043 | 17.84252 | 9750 ft | 414 kts | 281° |
| 2026-04-15 19:46 | -0.57635 | 17.81402 | 9751 ft | 414 kts | 281° |
| 2026-04-15 19:47 | -0.57225 | 17.78549 | 9754 ft | 415 kts | 281° |
| 2026-04-15 19:47 | -0.56814 | 17.75691 | 9751 ft | 415 kts | 281° |
| 2026-04-15 19:47 | -0.56404 | 17.72834 | 9745 ft | 414 kts | 281° |
| 2026-04-15 19:47 | -0.55995 | 17.69985 | 9748 ft | 414 kts | 281° |
| 2026-04-15 19:48 | -0.55591 | 17.67175 | 9746 ft | 413 kts | 281° |
| 2026-04-15 19:48 | -0.55182 | 17.64329 | 9749 ft | 414 kts | 281° |
| 2026-04-15 19:48 | -0.54772 | 17.61479 | 9751 ft | 414 kts | 281° |
| 2026-04-15 19:48 | -0.54364 | 17.58637 | 9755 ft | 414 kts | 281° |
| 2026-04-15 19:49 | -0.53954 | 17.55788 | 9747 ft | 414 kts | 281° |
| 2026-04-15 19:49 | -0.53545 | 17.52938 | 9751 ft | 414 kts | 281° |
| 2026-04-15 19:49 | -0.53136 | 17.50091 | 9749 ft | 413 kts | 281° |
| 2026-04-15 19:49 | -0.52732 | 17.47281 | 9749 ft | 413 kts | 281° |
| 2026-04-15 19:50 | -0.52323 | 17.44433 | 9752 ft | 414 kts | 281° |
| 2026-04-15 19:50 | -0.51914 | 17.41587 | 9753 ft | 414 kts | 281° |
| 2026-04-15 19:50 | -0.51505 | 17.38746 | 9752 ft | 414 kts | 281° |
| 2026-04-15 19:50 | -0.51096 | 17.35896 | 9756 ft | 414 kts | 281° |
| 2026-04-15 19:51 | -0.50687 | 17.33051 | 9752 ft | 414 kts | 281° |
| 2026-04-15 19:51 | -0.50276 | 17.30198 | 9757 ft | 413 kts | 281° |
| 2026-04-15 19:51 | -0.49872 | 17.27388 | 9756 ft | 414 kts | 281° |
| 2026-04-15 19:51 | -0.49464 | 17.24539 | 9753 ft | 413 kts | 281° |
| 2026-04-15 19:52 | -0.49054 | 17.21687 | 9755 ft | 414 kts | 281° |
| 2026-04-15 19:52 | -0.48645 | 17.18840 | 9754 ft | 414 kts | 281° |
| 2026-04-15 19:52 | -0.48268 | 17.16012 | 9755 ft | 413 kts | 280° |
| 2026-04-15 19:52 | -0.47917 | 17.13245 | 9750 ft | 395 kts | 280° |
| 2026-04-15 19:53 | -0.47571 | 17.10609 | 9739 ft | 372 kts | 281° |
| 2026-04-15 19:53 | -0.47219 | 17.08070 | 9741 ft | 367 kts | 281° |
| 2026-04-15 19:53 | -0.46875 | 17.05551 | 9739 ft | 365 kts | 281° |
| 2026-04-15 19:53 | -0.46540 | 17.03025 | 9744 ft | 368 kts | 281° |
| 2026-04-15 19:54 | -0.46205 | 17.00490 | 9745 ft | 367 kts | 281° |
| 2026-04-15 19:54 | -0.45867 | 16.97963 | 9748 ft | 367 kts | 281° |
| 2026-04-15 19:54 | -0.45526 | 16.95435 | 9745 ft | 367 kts | 281° |
| 2026-04-15 19:54 | -0.45192 | 16.92939 | 9746 ft | 367 kts | 281° |
| 2026-04-15 19:55 | -0.44854 | 16.90404 | 9748 ft | 368 kts | 281° |
| 2026-04-15 19:55 | -0.44514 | 16.87869 | 9749 ft | 368 kts | 280° |
| 2026-04-15 19:55 | -0.44175 | 16.85332 | 9752 ft | 368 kts | 281° |
| 2026-04-15 19:55 | -0.43836 | 16.82801 | 9753 ft | 367 kts | 281° |
| 2026-04-15 19:56 | -0.43497 | 16.80270 | 9751 ft | 367 kts | 281° |
| 2026-04-15 19:56 | -0.43158 | 16.77735 | 9742 ft | 368 kts | 281° |
| 2026-04-15 19:56 | -0.42819 | 16.75204 | 9749 ft | 367 kts | 281° |
| 2026-04-15 19:56 | -0.42486 | 16.72710 | 9745 ft | 367 kts | 281° |
| 2026-04-15 19:57 | -0.42146 | 16.70172 | 9749 ft | 368 kts | 281° |
| 2026-04-15 19:57 | -0.41805 | 16.67634 | 9747 ft | 368 kts | 280° |
| 2026-04-15 19:57 | -0.41466 | 16.65095 | 9752 ft | 368 kts | 280° |
| 2026-04-15 19:57 | -0.41127 | 16.62559 | 9747 ft | 368 kts | 280° |
| 2026-04-15 19:58 | -0.40786 | 16.60019 | 9749 ft | 368 kts | 280° |
| 2026-04-15 19:58 | -0.40447 | 16.57483 | 9746 ft | 368 kts | 280° |
| 2026-04-15 19:58 | -0.40107 | 16.54944 | 9747 ft | 367 kts | 280° |
| 2026-04-15 19:58 | -0.39772 | 16.52440 | 9745 ft | 368 kts | 281° |
| 2026-04-15 19:59 | -0.39432 | 16.49902 | 9747 ft | 368 kts | 281° |
| 2026-04-15 19:59 | -0.39092 | 16.47366 | 9755 ft | 368 kts | 280° |
| 2026-04-15 19:59 | -0.38754 | 16.44835 | 9751 ft | 368 kts | 280° |
| 2026-04-15 19:59 | -0.38418 | 16.42326 | 9750 ft | 368 kts | 281° |
| 2026-04-15 20:00 | -0.38078 | 16.39792 | 9755 ft | 367 kts | 280° |
| 2026-04-15 20:00 | -0.37739 | 16.37260 | 9752 ft | 365 kts | 280° |
| 2026-04-15 20:00 | -0.37411 | 16.34788 | 9750 ft | 356 kts | 281° |
| 2026-04-15 20:00 | -0.37081 | 16.32341 | 9750 ft | 355 kts | 280° |
| 2026-04-15 20:01 | -0.36752 | 16.29897 | 9755 ft | 354 kts | 280° |
| 2026-04-15 20:01 | -0.36426 | 16.27455 | 9755 ft | 355 kts | 280° |
| 2026-04-15 20:01 | -0.36099 | 16.25009 | 9750 ft | 355 kts | 280° |
| 2026-04-15 20:01 | -0.35772 | 16.22567 | 9750 ft | 354 kts | 280° |
| 2026-04-15 20:02 | -0.35449 | 16.20158 | 9754 ft | 354 kts | 280° |
| 2026-04-15 20:02 | -0.35122 | 16.17716 | 9750 ft | 355 kts | 280° |
| 2026-04-15 20:02 | -0.34795 | 16.15271 | 9752 ft | 354 kts | 280° |
| 2026-04-15 20:02 | -0.34468 | 16.12833 | 9756 ft | 354 kts | 280° |
| 2026-04-15 20:03 | -0.34141 | 16.10391 | 9752 ft | 354 kts | 280° |
| 2026-04-15 20:03 | -0.33813 | 16.07944 | 9756 ft | 355 kts | 280° |
| 2026-04-15 20:03 | -0.33486 | 16.05501 | 9760 ft | 355 kts | 280° |
| 2026-04-15 20:03 | -0.33159 | 16.03054 | 9759 ft | 355 kts | 280° |
| 2026-04-15 20:04 | -0.32835 | 16.00640 | 9760 ft | 355 kts | 280° |
| 2026-04-15 20:04 | -0.32507 | 15.98193 | 9757 ft | 355 kts | 280° |
| 2026-04-15 20:04 | -0.32179 | 15.95748 | 9757 ft | 355 kts | 280° |
| 2026-04-15 20:04 | -0.31852 | 15.93296 | 9753 ft | 355 kts | 280° |
| 2026-04-15 20:05 | -0.31524 | 15.90847 | 9758 ft | 355 kts | 280° |
| 2026-04-15 20:05 | -0.31196 | 15.88403 | 9759 ft | 355 kts | 280° |
| 2026-04-15 20:05 | -0.30868 | 15.85958 | 9760 ft | 355 kts | 280° |
| 2026-04-15 20:05 | -0.30541 | 15.83508 | 9761 ft | 356 kts | 280° |
| 2026-04-15 20:06 | -0.30213 | 15.81062 | 9757 ft | 355 kts | 280° |
| 2026-04-15 20:06 | -0.29884 | 15.78612 | 9760 ft | 355 kts | 280° |
| 2026-04-15 20:06 | -0.29560 | 15.76193 | 9769 ft | 356 kts | 280° |
| 2026-04-15 20:06 | -0.29232 | 15.73743 | 9769 ft | 356 kts | 280° |
| 2026-04-15 20:07 | -0.28904 | 15.71289 | 9768 ft | 355 kts | 280° |
| 2026-04-15 20:07 | -0.28573 | 15.68841 | 9771 ft | 355 kts | 280° |
| 2026-04-15 20:07 | -0.28246 | 15.66394 | 9768 ft | 355 kts | 280° |
| 2026-04-15 20:07 | -0.28031 | 15.64770 | 9771 ft | 355 kts | 280° |
| 2026-04-15 20:08 | -0.27704 | 15.62325 | 9769 ft | 353 kts | 279° |
| 2026-04-15 20:08 | -0.27271 | 15.59108 | 9769 ft | 353 kts | 279° |
| 2026-04-15 20:08 | -0.26946 | 15.56682 | 9765 ft | 352 kts | 279° |
| 2026-04-15 20:08 | -0.26621 | 15.54253 | 9768 ft | 353 kts | 279° |
| 2026-04-15 20:09 | -0.26295 | 15.51822 | 9765 ft | 353 kts | 279° |
| 2026-04-15 20:09 | -0.26075 | 15.50176 | 9766 ft | 353 kts | 279° |
| 2026-04-15 20:09 | -0.25752 | 15.47769 | 9774 ft | 353 kts | 279° |
| 2026-04-15 20:09 | -0.25426 | 15.45334 | 9781 ft | 353 kts | 279° |
| 2026-04-15 20:10 | -0.25100 | 15.42902 | 9775 ft | 353 kts | 279° |
| 2026-04-15 20:10 | -0.24774 | 15.40468 | 9776 ft | 354 kts | 280° |
| 2026-04-15 20:10 | -0.24448 | 15.38030 | 9775 ft | 353 kts | 280° |
| 2026-04-15 20:10 | -0.24121 | 15.35601 | 9775 ft | 353 kts | 279° |
| 2026-04-15 20:11 | -0.23795 | 15.33166 | 9781 ft | 353 kts | 279° |
| 2026-04-15 20:11 | -0.23469 | 15.30726 | 9781 ft | 354 kts | 280° |
| 2026-04-15 20:11 | -0.23147 | 15.28326 | 9773 ft | 353 kts | 279° |
| 2026-04-15 20:11 | -0.22821 | 15.25894 | 9776 ft | 353 kts | 279° |
| 2026-04-15 20:12 | -0.22494 | 15.23453 | 9773 ft | 353 kts | 279° |
| 2026-04-15 20:12 | -0.22167 | 15.21014 | 9777 ft | 353 kts | 279° |
| 2026-04-15 20:12 | -0.21841 | 15.18582 | 9779 ft | 352 kts | 279° |
| 2026-04-15 20:12 | -0.21515 | 15.16150 | 9779 ft | 354 kts | 280° |
| 2026-04-15 20:13 | -0.21193 | 15.13745 | 9783 ft | 353 kts | 280° |
| 2026-04-15 20:13 | -0.20867 | 15.11314 | 9781 ft | 353 kts | 279° |
| 2026-04-15 20:13 | -0.20541 | 15.08878 | 9781 ft | 354 kts | 280° |
| 2026-04-15 20:13 | -0.20214 | 15.06436 | 9783 ft | 353 kts | 280° |
| 2026-04-15 20:14 | -0.19888 | 15.04006 | 9779 ft | 353 kts | 280° |
| 2026-04-15 20:14 | -0.19562 | 15.01574 | 9784 ft | 353 kts | 280° |
| 2026-04-15 20:14 | -0.19236 | 14.99142 | 9785 ft | 353 kts | 280° |
| 2026-04-15 20:14 | -0.18910 | 14.96708 | 9779 ft | 353 kts | 279° |
| 2026-04-15 20:15 | -0.18584 | 14.94279 | 9783 ft | 353 kts | 279° |
| 2026-04-15 20:15 | -0.18263 | 14.91879 | 9783 ft | 352 kts | 280° |
| 2026-04-15 20:15 | -0.17936 | 14.89440 | 9781 ft | 353 kts | 280° |
| 2026-04-15 20:15 | -0.17609 | 14.87007 | 9782 ft | 353 kts | 280° |
| 2026-04-15 20:16 | -0.17283 | 14.84574 | 9781 ft | 352 kts | 280° |
| 2026-04-15 20:16 | -0.16958 | 14.82143 | 9787 ft | 353 kts | 280° |
| 2026-04-15 20:16 | -0.16636 | 14.79741 | 9785 ft | 354 kts | 280° |
| 2026-04-15 20:16 | -0.16309 | 14.77305 | 9786 ft | 353 kts | 280° |
| 2026-04-15 20:17 | -0.15984 | 14.74878 | 9789 ft | 353 kts | 280° |
| 2026-04-15 20:17 | -0.15657 | 14.72440 | 9785 ft | 353 kts | 280° |
| 2026-04-15 20:17 | -0.15330 | 14.70000 | 9788 ft | 353 kts | 280° |
| 2026-04-15 20:17 | -0.15003 | 14.67562 | 9784 ft | 354 kts | 280° |
| 2026-04-15 20:18 | -0.14677 | 14.65125 | 9783 ft | 354 kts | 280° |
| 2026-04-15 20:18 | -0.14350 | 14.62691 | 9782 ft | 353 kts | 280° |
| 2026-04-15 20:18 | -0.14024 | 14.60260 | 9784 ft | 353 kts | 280° |
| 2026-04-15 20:18 | -0.13702 | 14.57856 | 9782 ft | 353 kts | 279° |
| 2026-04-15 20:19 | -0.13376 | 14.55425 | 9784 ft | 354 kts | 280° |
| 2026-04-15 20:19 | -0.13049 | 14.52988 | 9781 ft | 353 kts | 280° |
| 2026-04-15 20:19 | -0.12721 | 14.50541 | 9784 ft | 354 kts | 279° |
| 2026-04-15 20:19 | -0.12394 | 14.48099 | 9788 ft | 354 kts | 280° |
| 2026-04-15 20:20 | -0.12072 | 14.45693 | 9783 ft | 354 kts | 280° |
| 2026-04-15 20:20 | -0.11745 | 14.43259 | 9787 ft | 354 kts | 280° |
| 2026-04-15 20:20 | -0.11418 | 14.40821 | 9786 ft | 353 kts | 279° |
| 2026-04-15 20:20 | -0.11092 | 14.38387 | 9783 ft | 353 kts | 280° |
| 2026-04-15 20:21 | -0.10765 | 14.35949 | 9788 ft | 354 kts | 280° |
| 2026-04-15 20:21 | -0.10438 | 14.33511 | 9793 ft | 354 kts | 280° |
| 2026-04-15 20:21 | -0.10112 | 14.31074 | 9789 ft | 353 kts | 280° |
| 2026-04-15 20:21 | -0.09785 | 14.28635 | 9789 ft | 353 kts | 279° |
| 2026-04-15 20:22 | -0.09458 | 14.26200 | 9791 ft | 354 kts | 280° |
| 2026-04-15 20:22 | -0.09132 | 14.23762 | 9791 ft | 354 kts | 280° |
| 2026-04-15 20:22 | -0.08809 | 14.21354 | 9792 ft | 354 kts | 280° |
| 2026-04-15 20:22 | -0.08482 | 14.18921 | 9792 ft | 353 kts | 279° |
| 2026-04-15 20:23 | -0.08157 | 14.16487 | 9790 ft | 353 kts | 279° |
| 2026-04-15 20:23 | -0.07830 | 14.14051 | 9796 ft | 353 kts | 279° |
| 2026-04-15 20:23 | -0.07504 | 14.11618 | 9795 ft | 354 kts | 279° |
| 2026-04-15 20:23 | -0.07177 | 14.09186 | 9791 ft | 353 kts | 279° |
| 2026-04-15 20:24 | -0.06850 | 14.06748 | 9796 ft | 353 kts | 279° |
| 2026-04-15 20:24 | -0.06199 | 14.01884 | 9791 ft | 352 kts | 279° |
| 2026-04-15 20:24 | -0.05877 | 13.99491 | 9792 ft | 352 kts | 279° |
| 2026-04-15 20:25 | -0.05552 | 13.97065 | 9791 ft | 352 kts | 279° |
| 2026-04-15 20:25 | -0.05228 | 13.94638 | 9792 ft | 352 kts | 279° |
| 2026-04-15 20:25 | -0.04902 | 13.92212 | 9790 ft | 353 kts | 279° |
| 2026-04-15 20:25 | -0.04576 | 13.89780 | 9792 ft | 353 kts | 279° |
| 2026-04-15 20:26 | -0.04250 | 13.87350 | 9793 ft | 352 kts | 279° |
| 2026-04-15 20:26 | -0.03925 | 13.84924 | 9790 ft | 352 kts | 279° |
| 2026-04-15 20:26 | -0.03598 | 13.82495 | 9796 ft | 354 kts | 279° |
| 2026-04-15 20:26 | -0.03273 | 13.80061 | 9791 ft | 353 kts | 279° |
| 2026-04-15 20:27 | -0.02948 | 13.77633 | 9797 ft | 353 kts | 279° |
| 2026-04-15 20:27 | -0.02621 | 13.75198 | 9797 ft | 353 kts | 279° |
| 2026-04-15 20:27 | -0.02295 | 13.72766 | 9797 ft | 353 kts | 279° |
| 2026-04-15 20:27 | -0.01969 | 13.70339 | 9797 ft | 353 kts | 279° |
| 2026-04-15 20:28 | -0.01643 | 13.67908 | 9798 ft | 353 kts | 279° |
| 2026-04-15 20:28 | -0.01321 | 13.65503 | 9798 ft | 353 kts | 279° |
| 2026-04-15 20:28 | -0.00995 | 13.63077 | 9802 ft | 353 kts | 279° |
| 2026-04-15 20:28 | -0.00670 | 13.60644 | 9796 ft | 353 kts | 279° |
| 2026-04-15 20:29 | -0.00344 | 13.58212 | 9799 ft | 353 kts | 279° |
| 2026-04-15 20:29 | -0.00017 | 13.55778 | 9797 ft | 353 kts | 279° |
| 2026-04-15 20:29 | 0.00309 | 13.53342 | 9794 ft | 354 kts | 279° |
| 2026-04-15 20:29 | 0.00636 | 13.50903 | 9798 ft | 354 kts | 280° |
| 2026-04-15 20:30 | 0.00963 | 13.48461 | 9791 ft | 354 kts | 279° |
| 2026-04-15 20:30 | 0.01291 | 13.46020 | 9794 ft | 354 kts | 279° |
| 2026-04-15 20:30 | 0.01614 | 13.43611 | 9794 ft | 354 kts | 279° |
| 2026-04-15 20:30 | 0.01942 | 13.41167 | 9798 ft | 355 kts | 279° |
| 2026-04-15 20:31 | 0.02270 | 13.38722 | 9792 ft | 354 kts | 279° |
| 2026-04-15 20:31 | 0.02596 | 13.36281 | 9792 ft | 353 kts | 280° |
| 2026-04-15 20:31 | 0.02923 | 13.33844 | 9796 ft | 355 kts | 280° |
| 2026-04-15 20:31 | 0.03250 | 13.31407 | 9794 ft | 354 kts | 280° |
| 2026-04-15 20:32 | 0.03577 | 13.28969 | 9795 ft | 354 kts | 280° |
| 2026-04-15 20:32 | 0.03904 | 13.26532 | 9798 ft | 354 kts | 280° |
| 2026-04-15 20:32 | 0.04230 | 13.24093 | 9795 ft | 354 kts | 280° |
| 2026-04-15 20:32 | 0.04557 | 13.21657 | 9791 ft | 354 kts | 280° |
| 2026-04-15 20:33 | 0.04881 | 13.19246 | 9792 ft | 354 kts | 280° |
| 2026-04-15 20:33 | 0.05208 | 13.16807 | 9791 ft | 354 kts | 280° |
| 2026-04-15 20:33 | 0.05534 | 13.14367 | 9791 ft | 354 kts | 280° |
| 2026-04-15 20:33 | 0.05861 | 13.11929 | 9787 ft | 354 kts | 279° |
| 2026-04-15 20:34 | 0.06189 | 13.09489 | 9791 ft | 354 kts | 279° |
| 2026-04-15 20:34 | 0.06516 | 13.07047 | 9784 ft | 354 kts | 279° |
| 2026-04-15 20:34 | 0.06843 | 13.04608 | 9790 ft | 354 kts | 279° |
| 2026-04-15 20:34 | 0.07169 | 13.02172 | 9794 ft | 354 kts | 279° |
| 2026-04-15 20:35 | 0.07496 | 12.99735 | 9787 ft | 354 kts | 279° |
| 2026-04-15 20:35 | 0.07824 | 12.97295 | 9788 ft | 354 kts | 279° |